Pagrindinis puslapis
METAR-TAF:

METAR-TAF

Oro uostai :

Mesina, Italija

platuma: 38-12N, ilguma: 015-33E, Aukštis: 59 m

Dabartinis oras

Ataskaita buvo paskelbta 58 minutes, ne 02:55 UTC
Vėjas 2 kt iš Šiaurės Vakarų
Temperatūra 13°C
Drėgmė 67%
Slėgis 1026 hPa
Matomumas 10 km arba daugiau
Išsisklaidę debesys ne aukštis 3000 ft

METAR: LICF 180255Z 32002KT 9999 SCT030 13/07 Q1026 RMK BKN BKN080 QUK / QUL / VIS MAR 16 KM MON INVIS NC VIS MIN 9999

Laikas: 04:53 (03:53 UTC)


TAF: trūkstamas

Orai ataskaitas ir orų prognozės (METAR, TAF).

turimą stotys yra geltonos ir raudonos taškus žemėlapyje.

Perkelti pele per norėdami pamatyti stoties vardą.

Tada spustelėkite, norėdami matyti oro stebėjimo ir prognozės.

Norėdami pakeisti žemėlapį: spustelėkite ant žalios mygtukų su juodo kryžiaus žemyn,; žalią mygtuką su brūkšneliu, jei norite nutolinti; arba žalių rodyklių gretimoms žemėlapius.


METAR-TAF: